sensor_id;sensor_type;location;lat;lon;timestamp;pressure;altitude;pressure_sealevel;temperature;humidity
40946;BME280;55635;50.264;11.918;2022-11-21T00:02:00;94397.00;;;2.61;100.00
40946;BME280;55635;50.264;11.918;2022-11-21T00:04:41;94387.50;;;2.60;100.00
40946;BME280;55635;50.264;11.918;2022-11-21T00:07:22;94388.00;;;2.64;100.00
40946;BME280;55635;50.264;11.918;2022-11-21T00:10:04;94388.78;;;2.72;100.00
40946;BME280;55635;50.264;11.918;2022-11-21T00:12:44;94361.81;;;2.64;100.00
40946;BME280;55635;50.264;11.918;2022-11-21T00:15:25;94369.38;;;2.59;100.00
40946;BME280;55635;50.264;11.918;2022-11-21T00:18:06;94367.50;;;2.75;100.00
40946;BME280;55635;50.264;11.918;2022-11-21T00:20:47;94366.75;;;2.59;100.00
40946;BME280;55635;50.264;11.918;2022-11-21T00:23:28;94361.50;;;2.67;100.00
40946;BME280;55635;50.264;11.918;2022-11-21T00:26:11;94359.88;;;2.58;100.00
40946;BME280;55635;50.264;11.918;2022-11-21T00:28:52;94381.31;;;2.53;100.00
40946;BME280;55635;50.264;11.918;2022-11-21T00:31:33;94345.34;;;2.55;100.00
40946;BME280;55635;50.264;11.918;2022-11-21T00:34:14;94348.44;;;2.59;100.00
40946;BME280;55635;50.264;11.918;2022-11-21T00:36:59;94350.25;;;2.58;100.00
40946;BME280;55635;50.264;11.918;2022-11-21T00:39:40;94342.53;;;2.57;100.00
40946;BME280;55635;50.264;11.918;2022-11-21T00:42:21;94349.75;;;2.63;100.00
40946;BME280;55635;50.264;11.918;2022-11-21T00:45:02;94341.75;;;2.48;100.00
40946;BME280;55635;50.264;11.918;2022-11-21T00:47:43;94334.72;;;2.49;100.00
40946;BME280;55635;50.264;11.918;2022-11-21T00:50:24;94339.41;;;2.69;100.00
40946;BME280;55635;50.264;11.918;2022-11-21T00:53:05;94330.78;;;2.61;100.00
40946;BME280;55635;50.264;11.918;2022-11-21T00:55:45;94343.66;;;2.70;100.00
40946;BME280;55635;50.264;11.918;2022-11-21T00:58:27;94345.66;;;2.60;100.00
40946;BME280;55635;50.264;11.918;2022-11-21T01:01:13;94326.31;;;2.78;100.00
40946;BME280;55635;50.264;11.918;2022-11-21T01:03:56;94339.06;;;2.72;100.00
40946;BME280;55635;50.264;11.918;2022-11-21T01:06:37;94335.28;;;2.83;100.00
40946;BME280;55635;50.264;11.918;2022-11-21T01:09:18;94336.97;;;3.07;100.00
40946;BME280;55635;50.264;11.918;2022-11-21T01:11:59;94338.59;;;3.08;100.00
40946;BME280;55635;50.264;11.918;2022-11-21T01:14:40;94340.53;;;3.14;100.00
40946;BME280;55635;50.264;11.918;2022-11-21T01:17:21;94331.66;;;3.23;100.00
40946;BME280;55635;50.264;11.918;2022-11-21T01:20:02;94330.13;;;3.28;100.00
40946;BME280;55635;50.264;11.918;2022-11-21T01:22:43;94332.25;;;3.33;100.00
40946;BME280;55635;50.264;11.918;2022-11-21T01:25:24;94332.53;;;3.61;100.00
40946;BME280;55635;50.264;11.918;2022-11-21T01:28:04;94330.38;;;3.64;100.00
40946;BME280;55635;50.264;11.918;2022-11-21T01:30:45;94334.22;;;3.76;100.00
40946;BME280;55635;50.264;11.918;2022-11-21T01:33:26;94319.78;;;3.80;100.00
40946;BME280;55635;50.264;11.918;2022-11-21T01:36:26;94319.72;;;3.89;100.00
40946;BME280;55635;50.264;11.918;2022-11-21T01:39:07;94316.38;;;3.95;100.00
40946;BME280;55635;50.264;11.918;2022-11-21T01:41:48;94302.22;;;4.04;100.00
40946;BME280;55635;50.264;11.918;2022-11-21T01:44:52;94307.91;;;4.07;100.00
40946;BME280;55635;50.264;11.918;2022-11-21T01:47:34;94312.44;;;4.13;100.00
40946;BME280;55635;50.264;11.918;2022-11-21T01:50:15;94309.56;;;4.23;100.00
40946;BME280;55635;50.264;11.918;2022-11-21T01:52:56;94315.19;;;4.20;100.00
40946;BME280;55635;50.264;11.918;2022-11-21T01:55:36;94292.53;;;4.04;100.00
40946;BME280;55635;50.264;11.918;2022-11-21T01:58:18;94294.56;;;4.17;100.00
40946;BME280;55635;50.264;11.918;2022-11-21T02:01:00;94299.75;;;4.39;100.00
40946;BME280;55635;50.264;11.918;2022-11-21T02:03:42;94286.63;;;4.25;100.00
40946;BME280;55635;50.264;11.918;2022-11-21T02:06:25;94294.03;;;4.36;100.00
40946;BME280;55635;50.264;11.918;2022-11-21T02:09:07;94290.97;;;4.47;100.00
40946;BME280;55635;50.264;11.918;2022-11-21T02:11:59;94292.59;;;4.48;100.00
40946;BME280;55635;50.264;11.918;2022-11-21T02:14:42;94295.38;;;4.47;100.00
40946;BME280;55635;50.264;11.918;2022-11-21T02:17:30;94286.63;;;4.54;100.00
40946;BME280;55635;50.264;11.918;2022-11-21T02:20:14;94287.34;;;4.48;100.00
40946;BME280;55635;50.264;11.918;2022-11-21T02:23:19;94271.06;;;4.38;100.00
40946;BME280;55635;50.264;11.918;2022-11-21T02:26:03;94260.75;;;4.22;100.00
40946;BME280;55635;50.264;11.918;2022-11-21T02:28:44;94267.81;;;4.36;100.00
40946;BME280;55635;50.264;11.918;2022-11-21T02:31:24;94261.38;;;4.38;100.00
40946;BME280;55635;50.264;11.918;2022-11-21T02:34:05;94261.38;;;4.38;100.00
40946;BME280;55635;50.264;11.918;2022-11-21T02:36:47;94250.25;;;4.51;100.00
40946;BME280;55635;50.264;11.918;2022-11-21T02:39:34;94253.94;;;4.57;100.00
40946;BME280;55635;50.264;11.918;2022-11-21T02:42:33;94252.50;;;4.69;100.00
40946;BME280;55635;50.264;11.918;2022-11-21T02:45:41;94256.28;;;4.81;100.00
40946;BME280;55635;50.264;11.918;2022-11-21T02:48:22;94249.94;;;4.75;100.00
40946;BME280;55635;50.264;11.918;2022-11-21T02:51:03;94244.91;;;4.74;100.00
40946;BME280;55635;50.264;11.918;2022-11-21T02:53:44;94237.19;;;4.72;100.00
40946;BME280;55635;50.264;11.918;2022-11-21T02:56:25;94233.28;;;4.68;100.00
40946;BME280;55635;50.264;11.918;2022-11-21T02:59:06;94226.31;;;4.75;100.00
40946;BME280;55635;50.264;11.918;2022-11-21T03:01:47;94228.31;;;4.73;100.00
40946;BME280;55635;50.264;11.918;2022-11-21T03:04:28;94232.94;;;4.86;100.00
40946;BME280;55635;50.264;11.918;2022-11-21T03:07:09;94234.81;;;4.77;100.00
40946;BME280;55635;50.264;11.918;2022-11-21T03:09:50;94218.31;;;4.83;100.00
40946;BME280;55635;50.264;11.918;2022-11-21T03:12:31;94237.59;;;4.90;100.00
40946;BME280;55635;50.264;11.918;2022-11-21T03:15:14;94238.72;;;4.81;100.00
40946;BME280;55635;50.264;11.918;2022-11-21T03:17:55;94229.16;;;4.74;100.00
40946;BME280;55635;50.264;11.918;2022-11-21T03:20:36;94221.69;;;4.77;100.00
40946;BME280;55635;50.264;11.918;2022-11-21T03:23:17;94232.56;;;4.74;100.00
40946;BME280;55635;50.264;11.918;2022-11-21T03:25:58;94227.97;;;4.76;100.00
40946;BME280;55635;50.264;11.918;2022-11-21T03:28:40;94221.31;;;4.80;100.00
40946;BME280;55635;50.264;11.918;2022-11-21T03:31:22;94233.56;;;4.73;100.00
40946;BME280;55635;50.264;11.918;2022-11-21T03:34:03;94215.56;;;4.70;100.00
40946;BME280;55635;50.264;11.918;2022-11-21T03:36:44;94218.44;;;4.75;100.00
40946;BME280;55635;50.264;11.918;2022-11-21T03:39:25;94223.16;;;4.80;100.00
40946;BME280;55635;50.264;11.918;2022-11-21T03:42:05;94223.31;;;4.78;100.00
40946;BME280;55635;50.264;11.918;2022-11-21T03:44:46;94221.34;;;4.66;100.00
40946;BME280;55635;50.264;11.918;2022-11-21T03:47:27;94221.41;;;4.87;100.00
40946;BME280;55635;50.264;11.918;2022-11-21T03:50:08;94210.41;;;4.77;100.00
40946;BME280;55635;50.264;11.918;2022-11-21T03:52:50;94211.97;;;4.92;100.00
40946;BME280;55635;50.264;11.918;2022-11-21T03:55:31;94206.66;;;4.86;100.00
40946;BME280;55635;50.264;11.918;2022-11-21T03:58:12;94212.91;;;4.85;100.00
40946;BME280;55635;50.264;11.918;2022-11-21T04:00:52;94206.28;;;4.89;100.00
40946;BME280;55635;50.264;11.918;2022-11-21T04:03:33;94200.22;;;4.88;100.00
40946;BME280;55635;50.264;11.918;2022-11-21T04:06:18;94201.91;;;4.96;100.00
40946;BME280;55635;50.264;11.918;2022-11-21T04:08:59;94208.94;;;5.10;100.00
40946;BME280;55635;50.264;11.918;2022-11-21T04:11:40;94201.69;;;5.12;99.87
40946;BME280;55635;50.264;11.918;2022-11-21T04:14:21;94205.94;;;4.92;100.00
40946;BME280;55635;50.264;11.918;2022-11-21T04:17:01;94206.03;;;5.05;100.00
40946;BME280;55635;50.264;11.918;2022-11-21T04:19:42;94212.72;;;5.08;99.56
40946;BME280;55635;50.264;11.918;2022-11-21T04:22:23;94207.75;;;5.13;98.93
40946;BME280;55635;50.264;11.918;2022-11-21T04:25:05;94208.38;;;5.15;99.20
40946;BME280;55635;50.264;11.918;2022-11-21T04:27:46;94205.19;;;5.19;98.73
40946;BME280;55635;50.264;11.918;2022-11-21T04:30:28;94195.22;;;5.15;98.87
40946;BME280;55635;50.264;11.918;2022-11-21T04:33:14;94193.97;;;5.11;98.34
40946;BME280;55635;50.264;11.918;2022-11-21T04:35:55;94194.41;;;5.14;98.64
40946;BME280;55635;50.264;11.918;2022-11-21T04:38:36;94203.25;;;5.28;98.26
40946;BME280;55635;50.264;11.918;2022-11-21T04:41:17;94195.50;;;5.20;97.37
40946;BME280;55635;50.264;11.918;2022-11-21T04:43:58;94206.38;;;5.17;97.30
40946;BME280;55635;50.264;11.918;2022-11-21T04:46:39;94203.13;;;5.15;97.54
40946;BME280;55635;50.264;11.918;2022-11-21T04:49:19;94208.06;;;5.03;97.71
40946;BME280;55635;50.264;11.918;2022-11-21T04:52:01;94206.41;;;5.02;98.32
40946;BME280;55635;50.264;11.918;2022-11-21T04:54:42;94209.50;;;5.06;97.65
40946;BME280;55635;50.264;11.918;2022-11-21T04:57:23;94212.03;;;4.99;97.86
40946;BME280;55635;50.264;11.918;2022-11-21T05:00:05;94213.34;;;4.88;97.89
40946;BME280;55635;50.264;11.918;2022-11-21T05:02:46;94217.28;;;4.99;97.64
40946;BME280;55635;50.264;11.918;2022-11-21T05:05:27;94208.56;;;4.92;97.48
40946;BME280;55635;50.264;11.918;2022-11-21T05:08:08;94213.38;;;5.10;97.26
40946;BME280;55635;50.264;11.918;2022-11-21T05:10:49;94207.94;;;5.11;97.07
40946;BME280;55635;50.264;11.918;2022-11-21T05:13:48;94212.72;;;5.08;96.66
40946;BME280;55635;50.264;11.918;2022-11-21T05:16:31;94214.88;;;4.98;96.71
40946;BME280;55635;50.264;11.918;2022-11-21T05:19:11;94217.38;;;5.06;96.86
40946;BME280;55635;50.264;11.918;2022-11-21T05:21:52;94225.38;;;4.98;97.05
40946;BME280;55635;50.264;11.918;2022-11-21T05:24:33;94221.78;;;4.84;97.35
40946;BME280;55635;50.264;11.918;2022-11-21T05:27:14;94227.88;;;5.06;97.35
40946;BME280;55635;50.264;11.918;2022-11-21T05:29:55;94230.50;;;5.06;97.22
40946;BME280;55635;50.264;11.918;2022-11-21T05:32:36;94235.31;;;5.02;97.07
40946;BME280;55635;50.264;11.918;2022-11-21T05:35:17;94234.47;;;5.16;96.84
40946;BME280;55635;50.264;11.918;2022-11-21T05:37:58;94235.28;;;5.17;96.60
40946;BME280;55635;50.264;11.918;2022-11-21T05:40:39;94239.34;;;5.19;96.25
40946;BME280;55635;50.264;11.918;2022-11-21T05:43:20;94246.94;;;5.14;96.42
40946;BME280;55635;50.264;11.918;2022-11-21T05:46:21;94242.59;;;5.21;96.06
40946;BME280;55635;50.264;11.918;2022-11-21T05:49:02;94238.69;;;5.17;96.19
40946;BME280;55635;50.264;11.918;2022-11-21T05:51:46;94247.03;;;5.21;96.09
40946;BME280;55635;50.264;11.918;2022-11-21T05:54:27;94241.69;;;5.14;95.75
40946;BME280;55635;50.264;11.918;2022-11-21T05:57:08;94251.91;;;5.24;95.63
40946;BME280;55635;50.264;11.918;2022-11-21T05:59:49;94260.75;;;5.37;95.54
40946;BME280;55635;50.264;11.918;2022-11-21T06:02:30;94248.84;;;5.41;95.33
40946;BME280;55635;50.264;11.918;2022-11-21T06:05:29;94263.38;;;5.37;95.15
40946;BME280;55635;50.264;11.918;2022-11-21T06:08:10;94260.84;;;5.29;95.42
40946;BME280;55635;50.264;11.918;2022-11-21T06:10:51;94261.19;;;5.20;95.93
40946;BME280;55635;50.264;11.918;2022-11-21T06:13:32;94268.75;;;5.29;96.00
40946;BME280;55635;50.264;11.918;2022-11-21T06:16:17;94270.06;;;5.19;96.18
40946;BME280;55635;50.264;11.918;2022-11-21T06:18:59;94280.34;;;5.35;96.01
40946;BME280;55635;50.264;11.918;2022-11-21T06:21:40;94276.22;;;5.26;96.01
40946;BME280;55635;50.264;11.918;2022-11-21T06:24:21;94286.13;;;5.30;95.99
40946;BME280;55635;50.264;11.918;2022-11-21T06:27:01;94284.69;;;5.28;95.87
40946;BME280;55635;50.264;11.918;2022-11-21T06:29:42;94288.41;;;5.33;95.81
40946;BME280;55635;50.264;11.918;2022-11-21T06:32:23;94287.13;;;5.29;95.89
40946;BME280;55635;50.264;11.918;2022-11-21T06:35:04;94303.25;;;5.41;95.79
40946;BME280;55635;50.264;11.918;2022-11-21T06:37:45;94300.78;;;5.39;95.48
40946;BME280;55635;50.264;11.918;2022-11-21T06:40:26;94310.03;;;5.35;95.35
40946;BME280;55635;50.264;11.918;2022-11-21T06:43:09;94310.59;;;5.31;95.53
40946;BME280;55635;50.264;11.918;2022-11-21T06:45:50;94321.66;;;5.41;95.82
40946;BME280;55635;50.264;11.918;2022-11-21T06:48:33;94328.25;;;5.37;95.25
40946;BME280;55635;50.264;11.918;2022-11-21T06:53:59;94332.19;;;5.47;94.83
40946;BME280;55635;50.264;11.918;2022-11-21T06:56:40;94336.41;;;5.42;94.76
40946;BME280;55635;50.264;11.918;2022-11-21T06:59:21;94329.63;;;5.33;94.43
40946;BME280;55635;50.264;11.918;2022-11-21T07:02:02;94344.59;;;5.18;94.55
40946;BME280;55635;50.264;11.918;2022-11-21T07:04:43;94347.97;;;5.12;94.82
40946;BME280;55635;50.264;11.918;2022-11-21T07:07:27;94353.59;;;5.09;94.25
40946;BME280;55635;50.264;11.918;2022-11-21T07:10:08;94366.09;;;5.07;93.83
40946;BME280;55635;50.264;11.918;2022-11-21T07:12:49;94367.09;;;5.06;93.56
40946;BME280;55635;50.264;11.918;2022-11-21T07:15:54;94371.72;;;5.04;93.97
40946;BME280;55635;50.264;11.918;2022-11-21T07:18:36;94378.06;;;4.94;94.27
40946;BME280;55635;50.264;11.918;2022-11-21T07:21:17;94386.81;;;4.87;93.90
40946;BME280;55635;50.264;11.918;2022-11-21T07:23:58;94374.69;;;5.01;94.24
40946;BME280;55635;50.264;11.918;2022-11-21T07:26:39;94380.38;;;4.89;93.94
40946;BME280;55635;50.264;11.918;2022-11-21T07:29:20;94392.16;;;4.93;93.45
40946;BME280;55635;50.264;11.918;2022-11-21T07:32:01;94388.25;;;4.89;93.21
40946;BME280;55635;50.264;11.918;2022-11-21T07:34:42;94381.22;;;4.90;93.17
40946;BME280;55635;50.264;11.918;2022-11-21T07:37:23;94396.34;;;5.03;93.45
40946;BME280;55635;50.264;11.918;2022-11-21T07:40:04;94390.16;;;4.95;93.26
40946;BME280;55635;50.264;11.918;2022-11-21T07:42:46;94400.97;;;5.01;93.18
40946;BME280;55635;50.264;11.918;2022-11-21T07:45:27;94397.69;;;4.99;93.18
40946;BME280;55635;50.264;11.918;2022-11-21T07:48:09;94399.59;;;5.05;93.08
40946;BME280;55635;50.264;11.918;2022-11-21T07:50:50;94396.53;;;5.16;92.60
40946;BME280;55635;50.264;11.918;2022-11-21T07:53:31;94406.84;;;5.17;92.65
40946;BME280;55635;50.264;11.918;2022-11-21T07:56:12;94404.41;;;5.16;92.10
40946;BME280;55635;50.264;11.918;2022-11-21T07:58:53;94415.16;;;5.21;92.50
40946;BME280;55635;50.264;11.918;2022-11-21T08:01:33;94411.53;;;5.36;92.24
40946;BME280;55635;50.264;11.918;2022-11-21T08:04:14;94401.41;;;5.19;91.50
40946;BME280;55635;50.264;11.918;2022-11-21T08:06:55;94412.69;;;5.48;92.51
40946;BME280;55635;50.264;11.918;2022-11-21T08:09:36;94415.94;;;5.65;92.54
40946;BME280;55635;50.264;11.918;2022-11-21T08:12:17;94401.97;;;5.65;91.59
40946;BME280;55635;50.264;11.918;2022-11-21T08:14:58;94415.06;;;5.79;91.23
40946;BME280;55635;50.264;11.918;2022-11-21T08:17:39;94417.53;;;5.95;91.22
40946;BME280;55635;50.264;11.918;2022-11-21T08:20:20;94417.88;;;5.92;90.19
40946;BME280;55635;50.264;11.918;2022-11-21T08:23:01;94419.34;;;5.95;90.88
40946;BME280;55635;50.264;11.918;2022-11-21T08:25:42;94424.16;;;6.13;90.81
40946;BME280;55635;50.264;11.918;2022-11-21T08:28:24;94426.31;;;6.24;90.61
40946;BME280;55635;50.264;11.918;2022-11-21T08:31:05;94417.47;;;6.31;89.62
40946;BME280;55635;50.264;11.918;2022-11-21T08:33:46;94415.13;;;6.22;88.77
40946;BME280;55635;50.264;11.918;2022-11-21T08:36:27;94413.56;;;6.06;88.29
40946;BME280;55635;50.264;11.918;2022-11-21T08:39:08;94419.50;;;6.15;89.12
40946;BME280;55635;50.264;11.918;2022-11-21T08:41:49;94417.75;;;6.00;88.63
40946;BME280;55635;50.264;11.918;2022-11-21T08:44:45;94413.78;;;6.05;89.16
40946;BME280;55635;50.264;11.918;2022-11-21T08:47:26;94407.75;;;6.11;89.85
40946;BME280;55635;50.264;11.918;2022-11-21T08:50:07;94404.38;;;6.17;89.45
40946;BME280;55635;50.264;11.918;2022-11-21T08:52:48;94415.88;;;6.16;88.88
40946;BME280;55635;50.264;11.918;2022-11-21T08:55:30;94407.75;;;6.11;88.48
40946;BME280;55635;50.264;11.918;2022-11-21T08:58:10;94407.25;;;6.22;88.98
40946;BME280;55635;50.264;11.918;2022-11-21T09:00:51;94409.88;;;6.22;87.59
40946;BME280;55635;50.264;11.918;2022-11-21T09:03:35;94414.75;;;6.25;88.78
40946;BME280;55635;50.264;11.918;2022-11-21T09:06:16;94429.56;;;6.26;88.57
40946;BME280;55635;50.264;11.918;2022-11-21T09:08:57;94430.44;;;6.33;89.20
40946;BME280;55635;50.264;11.918;2022-11-21T09:11:38;94420.53;;;6.35;89.33
40946;BME280;55635;50.264;11.918;2022-11-21T09:14:19;94415.34;;;6.41;88.77
40946;BME280;55635;50.264;11.918;2022-11-21T09:17:18;94423.69;;;6.73;89.36
40946;BME280;55635;50.264;11.918;2022-11-21T09:20:18;94427.72;;;6.69;88.33
40946;BME280;55635;50.264;11.918;2022-11-21T09:23:11;94428.75;;;6.74;88.15
40946;BME280;55635;50.264;11.918;2022-11-21T09:25:52;94434.03;;;6.74;86.95
40946;BME280;55635;50.264;11.918;2022-11-21T09:28:34;94435.22;;;6.72;87.93
40946;BME280;55635;50.264;11.918;2022-11-21T09:31:17;94435.03;;;6.73;87.70
40946;BME280;55635;50.264;11.918;2022-11-21T09:33:58;94437.75;;;6.58;86.67
40946;BME280;55635;50.264;11.918;2022-11-21T09:36:39;94440.31;;;6.52;87.24
40946;BME280;55635;50.264;11.918;2022-11-21T09:39:20;94435.50;;;6.55;88.31
40946;BME280;55635;50.264;11.918;2022-11-21T09:45:24;94446.22;;;6.54;86.98
40946;BME280;55635;50.264;11.918;2022-11-21T09:48:14;94452.63;;;6.45;87.02
40946;BME280;55635;50.264;11.918;2022-11-21T09:51:03;94454.53;;;6.57;87.99
40946;BME280;55635;50.264;11.918;2022-11-21T09:53:52;94448.94;;;6.67;88.21
40946;BME280;55635;50.264;11.918;2022-11-21T09:56:40;94467.38;;;6.67;87.48
40946;BME280;55635;50.264;11.918;2022-11-21T09:59:35;94455.03;;;6.68;88.13
40946;BME280;55635;50.264;11.918;2022-11-21T10:02:19;94457.75;;;6.53;87.19
40946;BME280;55635;50.264;11.918;2022-11-21T10:05:01;94459.00;;;6.57;87.92
40946;BME280;55635;50.264;11.918;2022-11-21T10:07:43;94462.56;;;6.71;88.62
40946;BME280;55635;50.264;11.918;2022-11-21T10:11:26;94464.50;;;6.83;87.63
40946;BME280;55635;50.264;11.918;2022-11-21T10:14:16;94458.47;;;6.89;86.61
40946;BME280;55635;50.264;11.918;2022-11-21T10:27:44;94450.91;;;7.89;83.38
40946;BME280;55635;50.264;11.918;2022-11-21T10:30:16;94439.84;;;7.59;82.75
40946;BME280;55635;50.264;11.918;2022-11-21T10:33:02;94436.47;;;7.79;84.79
40946;BME280;55635;50.264;11.918;2022-11-21T10:35:50;94441.34;;;7.82;82.45
40946;BME280;55635;50.264;11.918;2022-11-21T10:38:37;94437.19;;;8.13;83.83
40946;BME280;55635;50.264;11.918;2022-11-21T10:41:47;94444.03;;;8.95;81.63
40946;BME280;55635;50.264;11.918;2022-11-21T10:44:30;94421.72;;;10.19;86.52
40946;BME280;55635;50.264;11.918;2022-11-21T10:47:34;94414.09;;;10.67;79.17
40946;BME280;55635;50.264;11.918;2022-11-21T10:53:21;94426.19;;;9.67;74.61
40946;BME280;55635;50.264;11.918;2022-11-21T10:56:23;94435.63;;;9.37;76.32
40946;BME280;55635;50.264;11.918;2022-11-21T10:59:27;94430.59;;;8.96;76.23
40946;BME280;55635;50.264;11.918;2022-11-21T11:08:14;94416.69;;;9.47;78.02
40946;BME280;55635;50.264;11.918;2022-11-21T11:11:06;94419.38;;;9.20;76.32
40946;BME280;55635;50.264;11.918;2022-11-21T11:14:04;94410.06;;;8.85;78.83
40946;BME280;55635;50.264;11.918;2022-11-21T11:16:46;94405.19;;;8.69;78.36
40946;BME280;55635;50.264;11.918;2022-11-21T11:19:28;94417.59;;;8.68;78.08
40946;BME280;55635;50.264;11.918;2022-11-21T11:22:29;94423.91;;;8.61;78.39
40946;BME280;55635;50.264;11.918;2022-11-21T11:25:12;94421.47;;;8.53;79.29
40946;BME280;55635;50.264;11.918;2022-11-21T11:27:53;94419.59;;;8.34;78.65
40946;BME280;55635;50.264;11.918;2022-11-21T11:30:36;94417.91;;;8.19;80.64
40946;BME280;55635;50.264;11.918;2022-11-21T11:33:36;94413.63;;;8.05;79.75
40946;BME280;55635;50.264;11.918;2022-11-21T11:49:09;94408.88;;;7.81;81.35
40946;BME280;55635;50.264;11.918;2022-11-21T11:51:58;94399.53;;;7.79;81.67
40946;BME280;55635;50.264;11.918;2022-11-21T11:54:49;94411.91;;;7.78;82.22
40946;BME280;55635;50.264;11.918;2022-11-21T11:57:34;94414.06;;;7.61;83.35
40946;BME280;55635;50.264;11.918;2022-11-21T12:00:58;94408.72;;;7.42;82.83
40946;BME280;55635;50.264;11.918;2022-11-21T12:03:58;94415.16;;;7.33;82.79
40946;BME280;55635;50.264;11.918;2022-11-21T12:07:05;94406.72;;;7.50;84.25
40946;BME280;55635;50.264;11.918;2022-11-21T12:13:13;94401.50;;;7.23;85.79
40946;BME280;55635;50.264;11.918;2022-11-21T12:16:02;94407.06;;;7.41;84.60
40946;BME280;55635;50.264;11.918;2022-11-21T12:18:59;94414.44;;;7.52;85.90
40946;BME280;55635;50.264;11.918;2022-11-21T12:21:48;94420.66;;;7.03;83.69
40946;BME280;55635;50.264;11.918;2022-11-21T12:24:29;94407.53;;;6.82;85.17
40946;BME280;55635;50.264;11.918;2022-11-21T12:27:30;94410.47;;;6.94;85.38
40946;BME280;55635;50.264;11.918;2022-11-21T12:33:39;94398.16;;;6.73;84.91
40946;BME280;55635;50.264;11.918;2022-11-21T12:40:03;94393.25;;;6.98;86.42
40946;BME280;55635;50.264;11.918;2022-11-21T12:46:09;94387.25;;;7.10;85.36
40946;BME280;55635;50.264;11.918;2022-11-21T12:49:32;94391.66;;;6.97;85.89
40946;BME280;55635;50.264;11.918;2022-11-21T12:52:47;94382.72;;;6.98;85.79
40946;BME280;55635;50.264;11.918;2022-11-21T12:56:03;94391.16;;;6.59;85.72
40946;BME280;55635;50.264;11.918;2022-11-21T12:58:48;94379.31;;;6.21;88.20
40946;BME280;55635;50.264;11.918;2022-11-21T13:01:58;94384.59;;;5.85;89.11
40946;BME280;55635;50.264;11.918;2022-11-21T13:04:47;94378.00;;;5.53;90.93
40946;BME280;55635;50.264;11.918;2022-11-21T13:07:29;94379.78;;;5.53;92.07
40946;BME280;55635;50.264;11.918;2022-11-21T13:10:14;94377.25;;;5.59;92.71
40946;BME280;55635;50.264;11.918;2022-11-21T13:13:26;94367.09;;;5.56;92.63
40946;BME280;55635;50.264;11.918;2022-11-21T13:16:18;94377.00;;;5.75;92.11
40946;BME280;55635;50.264;11.918;2022-11-21T13:19:32;94370.19;;;5.45;92.88
40946;BME280;55635;50.264;11.918;2022-11-21T13:30:59;94371.88;;;5.31;92.75
40946;BME280;55635;50.264;11.918;2022-11-21T13:42:04;94395.38;;;5.54;91.66
40946;BME280;55635;50.264;11.918;2022-11-21T13:45:55;94386.03;;;5.52;92.13
40946;BME280;55635;50.264;11.918;2022-11-21T13:48:57;94388.69;;;5.37;92.29
40946;BME280;55635;50.264;11.918;2022-11-21T13:51:52;94380.09;;;5.43;92.45
40946;BME280;55635;50.264;11.918;2022-11-21T14:06:38;94374.63;;;5.44;91.77
40946;BME280;55635;50.264;11.918;2022-11-21T14:09:30;94369.31;;;5.38;91.91
40946;BME280;55635;50.264;11.918;2022-11-21T14:12:34;94372.31;;;5.71;92.12
40946;BME280;55635;50.264;11.918;2022-11-21T14:15:34;94370.50;;;5.71;90.78
40946;BME280;55635;50.264;11.918;2022-11-21T14:18:23;94357.44;;;5.63;91.54
40946;BME280;55635;50.264;11.918;2022-11-21T14:21:05;94356.81;;;5.40;91.89
40946;BME280;55635;50.264;11.918;2022-11-21T14:23:47;94357.69;;;5.47;91.14
40946;BME280;55635;50.264;11.918;2022-11-21T14:26:38;94356.97;;;5.38;91.21
40946;BME280;55635;50.264;11.918;2022-11-21T14:29:38;94351.31;;;5.06;93.19
40946;BME280;55635;50.264;11.918;2022-11-21T14:32:28;94364.06;;;5.38;93.30
40946;BME280;55635;50.264;11.918;2022-11-21T14:35:22;94364.44;;;5.35;93.21
40946;BME280;55635;50.264;11.918;2022-11-21T14:38:05;94357.91;;;5.31;93.70
40946;BME280;55635;50.264;11.918;2022-11-21T14:40:46;94357.56;;;5.19;94.41
40946;BME280;55635;50.264;11.918;2022-11-21T14:43:32;94361.28;;;5.25;93.95
40946;BME280;55635;50.264;11.918;2022-11-21T14:46:20;94356.69;;;4.98;95.60
40946;BME280;55635;50.264;11.918;2022-11-21T14:54:57;94365.28;;;5.06;94.95
40946;BME280;55635;50.264;11.918;2022-11-21T14:57:41;94359.75;;;5.16;95.20
40946;BME280;55635;50.264;11.918;2022-11-21T15:00:26;94349.69;;;5.19;94.87
40946;BME280;55635;50.264;11.918;2022-11-21T15:03:21;94356.19;;;5.38;94.87
40946;BME280;55635;50.264;11.918;2022-11-21T15:06:04;94346.56;;;5.30;93.59
40946;BME280;55635;50.264;11.918;2022-11-21T15:08:50;94348.22;;;5.31;92.97
40946;BME280;55635;50.264;11.918;2022-11-21T15:12:00;94349.94;;;5.60;92.86
40946;BME280;55635;50.264;11.918;2022-11-21T15:18:01;94337.25;;;5.64;91.98
40946;BME280;55635;50.264;11.918;2022-11-21T15:20:52;94343.19;;;5.72;92.05
40946;BME280;55635;50.264;11.918;2022-11-21T15:23:37;94340.75;;;5.71;91.06
40946;BME280;55635;50.264;11.918;2022-11-21T15:26:33;94334.53;;;5.78;91.56
40946;BME280;55635;50.264;11.918;2022-11-21T15:29:20;94320.41;;;5.79;91.25
40946;BME280;55635;50.264;11.918;2022-11-21T15:32:06;94329.09;;;5.59;91.41
40946;BME280;55635;50.264;11.918;2022-11-21T15:34:47;94328.97;;;5.45;91.84
40946;BME280;55635;50.264;11.918;2022-11-21T15:37:32;94312.63;;;5.14;93.54
40946;BME280;55635;50.264;11.918;2022-11-21T15:40:18;94306.41;;;5.01;94.28
40946;BME280;55635;50.264;11.918;2022-11-21T15:42:59;94320.81;;;4.90;95.16
40946;BME280;55635;50.264;11.918;2022-11-21T15:45:42;94307.09;;;4.73;95.71
40946;BME280;55635;50.264;11.918;2022-11-21T15:48:22;94306.06;;;4.89;94.49
40946;BME280;55635;50.264;11.918;2022-11-21T15:51:03;94301.91;;;4.80;95.15
40946;BME280;55635;50.264;11.918;2022-11-21T15:53:44;94294.22;;;4.78;94.94
40946;BME280;55635;50.264;11.918;2022-11-21T15:56:26;94291.84;;;4.83;93.90
40946;BME280;55635;50.264;11.918;2022-11-21T15:59:07;94291.59;;;4.78;93.58
40946;BME280;55635;50.264;11.918;2022-11-21T16:01:49;94288.50;;;4.75;93.53
40946;BME280;55635;50.264;11.918;2022-11-21T16:04:29;94294.66;;;4.53;94.16